Clear, AK (99704)

9:30 PM AKST on February 23, 2017 (GMT -0900)
Nenana Municipal | | Change Station
Active Advisory: Winter Weather Advisory

Elev 361 ft 64.55 °N, 149.07 °W | Updated 37 minutes ago

Snow
Snow
17 °F
Feels Like 8 °F
N
7
Wind Variable Wind from Variable

Today
High -- | Low -- °F
--% Chance of Precip.
Yesterday
High -- | Low -- °F
Precip. -- in
Pressure 30.14 in
Visibility 10.0 miles
Clouds Mostly Cloudy 7500 ft
Overcast 9000 ft
Windchill 8 °F
Dew Point 12 °F
Humidity 81%
Rainfall 0.26 in
Snow Depth Not available.
8:23 AM 5:57 PM
Waning Crescent, 6% visible
METAR PANN 240553Z AUTO VRB06KT 10SM BKN075 OVC090 M08/M11 A3010 RMK AO2 SLP206 60000 T10831111 11033 21089 55005 TSNO
Pressure 30.14 in
Visibility 10.0 miles
Clouds Mostly Cloudy 7500 ft
Overcast 9000 ft
Windchill 8 °F
Dew Point 12 °F
Humidity 81%
Rainfall 0.26 in
Snow Depth Not available.
8:23 AM 5:57 PM
Waning Crescent, 6% visible
METAR PANN 240553Z AUTO VRB06KT 10SM BKN075 OVC090 M08/M11 A3010 RMK AO2 SLP206 60000 T10831111 11033 21089 55005 TSNO

Get Your Daily Forecast Email!

Thanks for signing up!

Be on the lookout for a verification email in your inbox.

You'll start receiving the daily forecast at 8 AM.

×

10-Day Weather Forecast

Almanac

Astronomy

Feb. 23, 2017 Rise Set
Actual Time
Civil Twilight
Nautical Twilight
Astronomical Twilight
Moon
Length of Visible Light
Length of Day
Tomorrow will be .
, % of the Moon is Illuminated

Today's Extremes

State Highs State Lows

Community

WunderPhotos

Upload Photos

1,962,540 photos uploaded!

WunderBlog® & News

Nearby

Air Quality

  Air Quality AQ Index Pollutant
Not available.

Snow Depth

Station Depth Elevation

Earthquake Activity

City Distance Mag. Time & Date
Minimum magnitude displayed is 2.5.

Coastal Water Temperatures

Place Temperature

Stations

Nearby Weather Stations

Station Location Temp. Windchill Dew Point Humidity Wind Precip. Elev Updated Type
                   

Watches & Warnings

Winter Weather Advisory
Issued: 5:47 PM AKST Feb. 23, 2017 – National Weather Service

... Winter Weather Advisory remains in effect until 9 am akst
Friday...

* location... north of the Tanana river.

* Snow... 4 to 8 inches.

* Timing... snow becoming heavy and continuing through the night.

* Impacts... visibility may be greatly reduced. Travel and
outdoor activities will be difficult.

Precautionary/preparedness actions...

A Winter Weather Advisory means that one or more winter weather
hazards are expected to cause travel difficulties.